Time;durP1;ratioP1;P1;durP2;ratioP2;P2;SDS_P1;SDS_P2;PMS_P1;PMS_P2;Temp;Humidity;BMP_temperature;BMP_pressure;BME280_temperature;BME280_humidity;BME280_pressure;Samples;Min_cycle;Max_cycle;Signal;HPM_P1;HPM_P2
2022/06/02 00:02:13;;;;;;;1999.90;999.90;;;;;;;16.56;100.00;95182.72;5058886;28;20289;-54
2022/06/02 00:04:52;;;;;;;1999.90;999.90;;;;;;;16.55;100.00;95185.91;5059228;28;20177;-55
2022/06/02 00:07:24;;;;;;;1999.90;999.90;;;;;;;16.64;100.00;95184.00;5058561;28;20518;-49
2022/06/02 00:10:15;;;;;;;1999.90;999.90;;;;;;;16.56;100.00;95195.72;5058339;28;20217;-48
2022/06/02 00:12:51;;;;;;;1999.90;999.90;;;;;;;16.55;100.00;95188.69;5058301;28;20246;-52
2022/06/02 00:15:39;;;;;;;1999.90;999.90;;;;;;;16.49;100.00;95187.72;5058037;28;20185;-51
2022/06/02 00:18:28;;;;;;;1999.90;999.90;;;;;;;16.51;100.00;95197.09;5058051;28;20236;-48
2022/06/02 00:21:01;;;;;;;1999.90;999.90;;;;;;;16.53;100.00;95193.88;5044565;28;20204;-54
2022/06/02 00:24:18;;;;;;;1999.90;999.90;;;;;;;16.47;100.00;95201.16;5058956;28;20188;-50
2022/06/02 00:27:10;;;;;;;1999.90;999.90;;;;;;;16.38;100.00;95199.84;4959068;28;20255;-53
2022/06/02 00:29:45;;;;;;;1999.90;999.90;;;;;;;16.32;100.00;95195.34;4959081;28;20212;-54
2022/06/02 00:32:24;;;;;;;1999.90;999.90;;;;;;;16.43;100.00;95207.56;5037403;28;20205;-54
2022/06/02 00:34:59;;;;;;;1999.90;999.90;;;;;;;16.42;100.00;95221.03;5058369;28;20646;-54
2022/06/02 00:38:02;;;;;;;1999.90;999.90;;;;;;;16.37;100.00;95220.38;5058005;28;20193;-54
2022/06/02 00:40:28;;;;;;;1999.90;999.90;;;;;;;16.36;100.00;95227.06;5057829;28;20184;-46
2022/06/02 00:43:18;;;;;;;1999.90;999.90;;;;;;;16.32;100.00;95220.91;5057852;28;20284;-49
2022/06/02 00:45:45;;;;;;;1999.90;999.90;;;;;;;16.23;100.00;95223.56;5058029;28;20200;-49
2022/06/02 00:48:45;;;;;;;1999.90;999.90;;;;;;;16.18;100.00;95226.13;5057593;28;20273;-50
2022/06/02 00:51:15;;;;;;;1999.90;999.90;;;;;;;16.16;100.00;95218.28;5057917;28;20210;-49
2022/06/02 00:53:43;;;;;;;1999.90;999.90;;;;;;;16.10;100.00;95211.78;5058033;28;20189;-50
2022/06/02 00:59:30;;;;;;;1999.90;999.90;;;;;;;16.03;100.00;95209.25;5075921;28;20535;-46
2022/06/02 01:01:56;;;;;;;1999.90;999.90;;;;;;;16.00;100.00;95223.91;5057374;28;20185;-57
2022/06/02 01:04:22;;;;;;;1999.90;999.90;;;;;;;15.89;100.00;95225.47;5057533;28;20184;-57
2022/06/02 01:07:12;;;;;;;1999.90;999.90;;;;;;;15.82;100.00;95223.72;5057353;28;20249;-57
2022/06/02 01:09:47;;;;;;;1999.90;999.90;;;;;;;15.80;100.00;95209.63;5058024;28;20197;-56
2022/06/02 01:12:33;;;;;;;1999.90;999.90;;;;;;;15.74;100.00;95216.13;5057402;28;20184;-55
2022/06/02 01:15:20;;;;;;;1999.90;999.90;;;;;;;15.60;100.00;95200.03;5057271;28;20235;-55
2022/06/02 01:17:52;;;;;;;1999.90;999.90;;;;;;;15.55;100.00;95204.09;5057362;28;20209;-47
2022/06/02 01:20:39;;;;;;;1999.90;999.90;;;;;;;15.50;100.00;95195.63;5057322;28;20189;-45
2022/06/02 01:23:38;;;;;;;1999.90;999.90;;;;;;;15.41;100.00;95199.03;5057052;28;20200;-46
2022/06/02 01:26:38;;;;;;;1999.90;999.90;;;;;;;15.30;100.00;95190.28;5057388;28;20189;-44
2022/06/02 01:29:18;;;;;;;1999.90;999.90;;;;;;;15.25;100.00;95173.53;5056977;28;20205;-44
2022/06/02 01:32:07;;;;;;;1999.90;999.90;;;;;;;15.26;100.00;95170.34;5057180;28;20192;-45
2022/06/02 01:34:47;;;;;;;1999.90;999.90;;;;;;;15.22;100.00;95169.69;5057333;28;20189;-62
2022/06/02 01:37:17;;;;;;;1999.90;999.90;;;;;;;15.13;100.00;95160.53;5057236;28;20189;-54
2022/06/02 01:40:02;;;;;;;1999.90;999.90;;;;;;;15.19;100.00;95165.06;5057507;28;20199;-57
2022/06/02 01:42:34;;;;;;;1999.90;999.90;;;;;;;15.24;100.00;95159.03;5057324;28;20330;-55
2022/06/02 01:45:39;;;;;;;1999.90;999.90;;;;;;;15.30;100.00;95151.75;5056678;28;20234;-56
2022/06/02 01:48:05;;;;;;;1999.90;999.90;;;;;;;15.29;100.00;95158.47;5007998;28;20196;-56
2022/06/02 01:50:33;;;;;;;1999.90;999.90;;;;;;;15.28;100.00;95156.94;5057428;28;20177;-56
2022/06/02 01:53:17;;;;;;;1999.90;999.90;;;;;;;15.25;100.00;95146.03;5057377;28;20189;-57
2022/06/02 01:56:21;;;;;;;1999.90;999.90;;;;;;;15.36;100.00;95147.28;5057039;28;20196;-48
2022/06/02 01:59:15;;;;;;;1999.90;999.90;;;;;;;15.45;100.00;95144.63;5057275;28;20207;-55
2022/06/02 02:02:16;;;;;;;1999.90;999.90;;;;;;;15.44;100.00;95156.09;5056740;28;20184;-55
2022/06/02 02:05:03;;;;;;;1999.90;999.90;;;;;;;15.42;100.00;95156.53;5057071;28;20211;-56
2022/06/02 02:07:39;;;;;;;1999.90;999.90;;;;;;;15.53;100.00;95153.47;5056929;28;20200;-56
2022/06/02 02:10:41;;;;;;;1999.90;999.90;;;;;;;15.46;100.00;95170.97;5056720;28;20210;-56
2022/06/02 02:13:16;;;;;;;1999.90;999.90;;;;;;;15.35;100.00;95167.78;5056575;28;20192;-44
2022/06/02 02:16:05;;;;;;;1999.90;999.90;;;;;;;15.43;100.00;95169.09;5056633;28;20220;-49
2022/06/02 02:18:47;;;;;;;1999.90;999.90;;;;;;;15.38;100.00;95180.66;5057146;28;20193;-46
2022/06/02 02:21:38;;;;;;;1999.90;999.90;;;;;;;15.40;100.00;95178.22;5056812;28;20267;-46
2022/06/02 02:24:43;;;;;;;1999.90;999.90;;;;;;;15.42;100.00;95188.78;5012421;28;20209;-45
2022/06/02 02:27:20;;;;;;;1999.90;999.90;;;;;;;15.40;100.00;95194.72;5026105;28;20239;-45
2022/06/02 02:30:04;;;;;;;1999.90;999.90;;;;;;;15.45;100.00;95199.69;5056617;28;20346;-53
2022/06/02 02:33:06;;;;;;;1999.90;999.90;;;;;;;15.48;100.00;95193.31;5056673;28;20283;-46
2022/06/02 02:35:50;;;;;;;1999.90;999.90;;;;;;;15.51;100.00;95192.44;5056146;28;20224;-47
2022/06/02 02:38:24;;;;;;;1999.90;999.90;;;;;;;15.43;100.00;95188.34;5056358;28;20188;-51
2022/06/02 02:40:58;;;;;;;1999.90;999.90;;;;;;;15.46;100.00;95181.19;5056683;28;20630;-47
2022/06/02 02:43:38;;;;;;;1999.90;999.90;;;;;;;15.37;100.00;95176.34;5056843;28;20280;-46
2022/06/02 02:46:12;;;;;;;1999.90;999.90;;;;;;;15.30;100.00;95170.25;5056666;28;20189;-45
2022/06/02 02:48:52;;;;;;;1999.90;999.90;;;;;;;15.31;100.00;95172.59;5056394;28;20231;-51
2022/06/02 02:51:24;;;;;;;1999.90;999.90;;;;;;;15.21;100.00;95173.66;5056415;28;20195;-47
2022/06/02 02:54:31;;;;;;;1999.90;999.90;;;;;;;15.24;100.00;95167.28;5055997;28;20189;-48
2022/06/02 02:57:24;;;;;;;1999.90;999.90;;;;;;;15.27;100.00;95171.88;4955905;28;20287;-49
2022/06/02 03:00:04;;;;;;;1999.90;999.90;;;;;;;15.30;100.00;95176.53;4957001;28;20196;-47
2022/06/02 03:02:54;;;;;;;1999.90;999.90;;;;;;;15.25;100.00;95179.81;5033279;28;20201;-45
2022/06/02 03:05:23;;;;;;;1999.90;999.90;;;;;;;15.20;100.00;95177.63;5056225;28;20615;-46
2022/06/02 03:07:48;;;;;;;1999.90;999.90;;;;;;;15.26;100.00;95170.34;5055425;28;20233;-53
2022/06/02 03:10:35;;;;;;;1999.90;999.90;;;;;;;15.28;100.00;95167.16;5055493;28;20217;-47
2022/06/02 03:13:14;;;;;;;1999.90;999.90;;;;;;;15.28;100.00;95170.69;5056193;28;20196;-47
2022/06/02 03:15:48;;;;;;;1999.90;999.90;;;;;;;15.20;100.00;95176.84;5056160;28;20216;-46
2022/06/02 03:18:24;;;;;;;1999.90;999.90;;;;;;;15.25;100.00;95173.53;5055741;28;20226;-48
2022/06/02 03:20:49;;;;;;;1999.90;999.90;;;;;;;15.22;100.00;95179.91;5055624;28;20188;-52
2022/06/02 03:23:28;;;;;;;1999.90;999.90;;;;;;;15.27;100.00;95177.38;5055683;28;20235;-46
2022/06/02 03:26:02;;;;;;;1999.90;999.90;;;;;;;15.25;100.00;95181.78;5056006;28;20191;-52
2022/06/02 03:28:40;;;;;;;1999.90;999.90;;;;;;;15.18;100.00;95177.28;5055789;28;20205;-57
2022/06/02 03:31:16;;;;;;;1999.90;999.90;;;;;;;15.31;100.00;95178.09;5055513;28;20185;-58
2022/06/02 03:33:42;;;;;;;1999.90;999.90;;;;;;;15.37;100.00;95172.84;5055493;28;20211;-58
2022/06/02 03:36:47;;;;;;;1999.90;999.90;;;;;;;15.34;100.00;95174.44;5055318;28;20185;-59
2022/06/02 03:39:29;;;;;;;1999.90;999.90;;;;;;;15.42;100.00;95180.53;5055391;28;20185;-57
2022/06/02 03:42:12;;;;;;;1999.90;999.90;;;;;;;15.38;100.00;95183.41;5055767;28;20190;-57
2022/06/02 03:45:02;;;;;;;1999.90;999.90;;;;;;;15.40;100.00;95172.72;5055224;28;20212;-52
2022/06/02 03:47:46;;;;;;;1999.90;999.90;;;;;;;15.43;100.00;95180.09;5055794;28;20212;-49
2022/06/02 03:50:20;;;;;;;1999.90;999.90;;;;;;;15.42;100.00;95178.56;5055361;28;20299;-49
2022/06/02 03:53:04;;;;;;;1999.90;999.90;;;;;;;15.69;100.00;95186.38;5056070;28;20638;-54
2022/06/02 03:55:48;;;;;;;1999.90;999.90;;;;;;;16.05;100.00;95198.59;5055395;28;20271;-52
2022/06/02 03:58:27;;;;;;;1999.90;999.90;;;;;;;16.34;100.00;95210.22;5055446;28;20185;-48
2022/06/02 04:01:03;;;;;;;1999.90;999.90;;;;;;;16.73;100.00;95225.47;5055150;28;20185;-50
2022/06/02 04:03:52;;;;;;;1999.90;999.90;;;;;;;16.77;100.00;95241.88;5055718;28;20210;-45
2022/06/02 04:06:40;;;;;;;1999.90;999.90;;;;;;;17.40;100.00;95272.72;5009630;28;20191;-60
2022/06/02 04:09:08;;;;;;;1999.90;999.90;;;;;;;17.33;100.00;95297.84;5058778;28;20327;-60
2022/06/02 04:15:11;;;;;;;1999.90;999.90;;;;;;;17.03;100.00;95304.81;5076382;28;20604;-59
2022/06/02 04:18:01;;;;;;;1999.90;999.90;;;;;;;17.07;100.00;95305.44;5059067;28;20199;-59
2022/06/02 04:20:49;;;;;;;1999.90;999.90;;;;;;;17.00;100.00;95299.44;5058848;28;20185;-56
2022/06/02 04:23:45;;;;;;;1999.90;999.90;;;;;;;17.20;100.00;95297.91;5058735;28;20196;-53
2022/06/02 04:26:28;;;;;;;1999.90;999.90;;;;;;;17.22;100.00;95308.50;5058290;28;20215;-53
2022/06/02 04:29:38;;;;;;;1999.90;999.90;;;;;;;17.34;100.00;95329.75;5058475;28;20197;-52
2022/06/02 04:32:08;;;;;;;1999.90;999.90;;;;;;;17.29;100.00;95327.56;5053651;28;20210;-53
2022/06/02 04:34:53;;;;;;;1999.90;999.90;;;;;;;17.25;100.00;95337.94;5058422;28;20189;-53
2022/06/02 04:37:45;;;;;;;1999.90;999.90;;;;;;;17.04;100.00;95344.22;5058024;28;20193;-50
2022/06/02 04:40:33;;;;;;;1999.90;999.90;;;;;;;17.13;100.00;95338.78;5058538;28;20223;-45
2022/06/02 04:43:27;;;;;;;1999.90;999.90;;;;;;;17.27;100.00;95344.59;5058153;28;20263;-57
2022/06/02 04:46:20;;;;;;;1999.90;999.90;;;;;;;17.38;100.00;95358.00;5057995;28;20220;-58
2022/06/02 04:48:50;;;;;;;1999.90;999.90;;;;;;;17.62;100.00;95372.94;5057985;28;20209;-57
2022/06/02 04:51:37;;;;;;;1999.90;999.90;;;;;;;17.53;100.00;95389.47;5058075;28;20196;-57
2022/06/02 04:54:25;;;;;;;1999.90;999.90;;;;;;;17.62;100.00;95381.22;5058031;28;20189;-57
2022/06/02 04:57:02;;;;;;;1999.90;999.90;;;;;;;17.79;100.00;95388.13;5057902;28;20196;-58
2022/06/02 05:00:00;;;;;;;1999.90;999.90;;;;;;;17.74;100.00;95391.47;5058273;28;20200;-55
2022/06/02 05:02:45;;;;;;;1999.90;999.90;;;;;;;18.11;100.00;95398.78;5057159;28;20208;-50
2022/06/02 05:05:27;;;;;;;1999.90;999.90;;;;;;;19.58;100.00;95425.34;5057887;28;20192;-54
2022/06/02 05:08:04;;;;;;;1999.90;999.90;;;;;;;19.88;100.00;95450.16;5057874;28;20197;-54
2022/06/02 05:10:43;;;;;;;1999.90;999.90;;;;;;;19.46;100.00;95451.97;5057916;28;20199;-54
2022/06/02 05:13:14;;;;;;;1999.90;999.90;;;;;;;19.72;100.00;95452.47;5057469;28;20307;-54
2022/06/02 05:16:03;;;;;;;1999.90;999.90;;;;;;;19.56;100.00;95458.31;5057482;28;20193;-60
2022/06/02 05:18:54;;;;;;;1999.90;999.90;;;;;;;19.97;100.00;95458.50;5055980;28;20216;-60
2022/06/02 05:21:53;;;;;;;1999.90;999.90;;;;;;;19.29;100.00;95470.09;5057368;28;20276;-60
2022/06/02 05:24:40;;;;;;;1999.90;999.90;;;;;;;19.56;100.00;95469.38;5057081;28;20184;-60
2022/06/02 05:27:14;;;;;;;1999.90;999.90;;;;;;;19.80;100.00;95465.56;5057441;28;20199;-60
2022/06/02 05:30:13;;;;;;;1999.90;999.90;;;;;;;20.20;100.00;95454.34;5057246;28;20668;-60
2022/06/02 05:33:02;;;;;;;1999.90;999.90;;;;;;;21.63;100.00;95453.06;5057401;28;20196;-61
2022/06/02 05:35:45;;;;;;;1999.90;999.90;;;;;;;22.66;100.00;95449.31;5057028;28;20264;-59
2022/06/02 05:38:16;;;;;;;1999.90;999.90;;;;;;;23.69;100.00;95428.34;5056989;28;20279;-57
2022/06/02 05:40:49;;;;;;;1999.90;999.90;;;;;;;23.74;100.00;95453.50;5056793;28;20185;-57
2022/06/02 05:43:49;;;;;;;1999.90;999.90;;;;;;;24.46;92.92;95451.59;5056615;28;20192;-57
2022/06/02 05:46:30;;;;;;;1999.90;999.90;;;;;;;24.19;90.48;95421.38;5057233;28;20254;-59
2022/06/02 05:49:17;;;;;;;1999.90;999.90;;;;;;;22.93;96.81;95398.06;5057379;28;20219;-57
2022/06/02 05:51:48;;;;;;;1999.90;999.90;;;;;;;22.01;100.00;95400.28;5056936;28;20193;-57
2022/06/02 05:54:34;;;;;;;1999.90;999.90;;;;;;;21.89;100.00;95392.19;5056625;28;20193;-50
2022/06/02 05:57:28;;;;;;;1999.90;999.90;;;;;;;21.80;100.00;95395.81;5057014;28;20192;-48
2022/06/02 06:00:17;;;;;;;1999.90;999.90;;;;;;;21.09;100.00;95391.50;5056848;28;20647;-48
2022/06/02 06:02:46;;;;;;;1999.90;999.90;;;;;;;21.18;100.00;95408.88;5056463;28;20216;-54
2022/06/02 06:05:11;;;;;;;1999.90;999.90;;;;;;;20.87;100.00;95413.91;5057064;28;20196;-49
2022/06/02 06:07:51;;;;;;;1999.90;999.90;;;;;;;20.50;100.00;95445.81;5056561;28;20276;-47
2022/06/02 06:10:26;;;;;;;1999.90;999.90;;;;;;;21.55;100.00;95451.88;5056333;28;20215;-57
2022/06/02 06:13:21;;;;;;;1999.90;999.90;;;;;;;21.17;100.00;95449.00;5056299;28;20196;-54
2022/06/02 06:16:12;;;;;;;1999.90;999.90;;;;;;;21.31;100.00;95442.75;5056565;28;20195;-55
2022/06/02 06:19:05;;;;;;;1999.90;999.90;;;;;;;22.44;100.00;95423.84;5056215;28;20185;-54
2022/06/02 06:21:50;;;;;;;1999.90;999.90;;;;;;;23.41;98.72;95435.56;5057037;28;20276;-54
2022/06/02 06:24:50;;;;;;;1999.90;999.90;;;;;;;24.07;90.70;95414.13;5057039;28;20195;-54
2022/06/02 06:27:33;;;;;;;1999.90;999.90;;;;;;;24.33;87.64;95407.28;5056399;28;20279;-55
2022/06/02 06:30:24;;;;;;;1999.90;999.90;;;;;;;24.80;85.62;95408.78;5056170;28;20205;-51
2022/06/02 06:32:52;;;;;;;1999.90;999.90;;;;;;;26.10;79.50;95414.94;5055782;28;20217;-58
2022/06/02 06:35:35;;;;;;;1999.90;999.90;;;;;;;26.78;73.84;95426.59;5056554;28;20233;-58
2022/06/02 06:38:13;;;;;;;1999.90;999.90;;;;;;;26.32;74.83;95429.03;5056365;28;20220;-57
2022/06/02 06:41:08;;;;;;;1999.90;999.90;;;;;;;27.12;70.51;95455.41;5056331;28;20647;-58
2022/06/02 06:43:48;;;;;;;1999.90;999.90;;;;;;;26.47;70.03;95463.19;5034854;28;20655;-58
2022/06/02 06:46:24;;;;;;;1999.90;999.90;;;;;;;26.44;73.72;95457.84;5073943;28;20166;-58
2022/06/02 06:49:09;;;;;;;1999.90;999.90;;;;;;;25.59;75.05;95462.78;5056457;28;20216;-45
2022/06/02 06:51:59;;;;;;;1999.90;999.90;;;;;;;24.71;80.35;95464.84;5056271;28;20189;-57
2022/06/02 06:55:01;;;;;;;1999.90;999.90;;;;;;;24.81;79.16;95472.53;5056491;28;20188;-57
2022/06/02 06:57:47;;;;;;;1999.90;999.90;;;;;;;25.30;76.67;95474.25;5016582;28;20534;-57
2022/06/02 07:00:21;;;;;;;1999.90;999.90;;;;;;;26.19;71.22;95481.97;5038464;28;20192;-57
2022/06/02 07:02:59;;;;;;;1999.90;999.90;;;;;;;25.98;71.24;95477.00;5056341;28;20185;-57
2022/06/02 07:05:46;;;;;;;1999.90;999.90;;;;;;;26.10;71.54;95484.97;5056172;28;20283;-48
2022/06/02 07:08:39;;;;;;;1999.90;999.90;;;;;;;28.55;62.61;95510.56;5055363;28;20184;-46
2022/06/02 07:14:21;;;;;;;1999.90;999.90;;;;;;;28.81;57.39;95517.34;5073170;28;20563;-61
2022/06/02 07:16:55;;;;;;;1999.90;999.90;;;;;;;28.87;56.63;95512.44;5055990;28;20677;-61
2022/06/02 07:19:24;;;;;;;1999.90;999.90;;;;;;;30.37;50.91;95518.41;5055826;28;20188;-60
2022/06/02 07:21:56;;;;;;;1999.90;999.90;;;;;;;30.83;50.15;95520.91;5055491;28;20189;-62
2022/06/02 07:24:43;;;;;;;1999.90;999.90;;;;;;;30.25;51.06;95528.25;5055537;28;20209;-51
2022/06/02 07:27:18;;;;;;;1999.90;999.90;;;;;;;30.57;49.25;95529.94;5056042;28;20272;-45
2022/06/02 07:30:20;;;;;;;1999.90;999.90;;;;;;;29.69;50.70;95525.22;5072972;28;20222;-45
2022/06/02 07:33:10;;;;;;;1999.90;999.90;;;;;;;32.19;45.66;95529.81;5055150;28;20192;-48
2022/06/02 07:35:53;;;;;;;1999.90;999.90;;;;;;;30.45;48.39;95524.97;5055362;28;20174;-49
2022/06/02 07:38:19;;;;;;;1999.90;999.90;;;;;;;31.44;45.52;95529.28;5073017;28;20220;-50
2022/06/02 07:41:02;;;;;;;1999.90;999.90;;;;;;;31.83;45.18;95529.41;5055306;28;20189;-48
2022/06/02 07:43:46;;;;;;;1999.90;999.90;;;;;;;31.96;43.64;95523.78;5057623;28;20189;-51
2022/06/02 07:46:28;;;;;;;1999.90;999.90;;;;;;;31.77;43.02;95517.44;5058614;28;20188;-48
2022/06/02 07:49:35;;;;;;;1999.90;999.90;;;;;;;30.99;44.91;95531.97;5058712;28;20201;-54
2022/06/02 07:52:22;;;;;;;1999.90;999.90;;;;;;;31.53;43.40;95528.13;4959792;28;20228;-51
2022/06/02 07:54:57;;;;;;;1999.90;999.90;;;;;;;29.22;47.61;95540.66;5056920;28;20226;-54
2022/06/02 07:57:59;;;;;;;1999.90;999.90;;;;;;;29.11;49.77;95539.94;5058983;28;20192;-50
2022/06/02 08:00:37;;;;;;;1999.90;999.90;;;;;;;29.22;47.53;95539.88;5058417;28;20232;-51
2022/06/02 08:03:05;;;;;;;1999.90;999.90;;;;;;;28.57;49.86;95541.75;5058846;28;20250;-62
2022/06/02 08:05:51;;;;;;;1999.90;999.90;;;;;;;28.84;50.77;95538.78;5058733;28;20189;-53
2022/06/02 08:08:29;;;;;;;1999.90;999.90;;;;;;;29.32;50.86;95544.66;5058330;28;20199;-57
2022/06/02 08:10:57;;;;;;;1999.90;999.90;;;;;;;28.88;50.07;95539.28;5058598;28;20188;-61
2022/06/02 08:13:44;;;;;;;1999.90;999.90;;;;;;;29.03;51.27;95530.53;5058369;28;20201;-57
2022/06/02 08:16:24;;;;;;;1999.90;999.90;;;;;;;29.78;47.35;95541.00;5058330;28;20180;-57
2022/06/02 08:19:34;;;;;;;1999.90;999.90;;;;;;;30.20;47.10;95546.00;5058375;28;20193;-50
2022/06/02 08:22:03;;;;;;;1999.90;999.90;;;;;;;29.33;47.30;95551.06;5012686;28;20283;-53
2022/06/02 08:24:43;;;;;;;1999.90;999.90;;;;;;;31.59;43.24;95546.50;5058198;28;20265;-48
2022/06/02 08:27:34;;;;;;;1999.90;999.90;;;;;;;30.02;46.13;95563.56;5058036;28;20248;-52
2022/06/02 08:30:02;;;;;;;1999.90;999.90;;;;;;;28.22;48.64;95551.53;5058307;28;20209;-45
2022/06/02 08:32:37;;;;;;;1999.90;999.90;;;;;;;28.76;48.53;95560.31;5058245;28;20192;-51
2022/06/02 08:35:26;;;;;;;1999.90;999.90;;;;;;;30.49;45.04;95547.97;5058335;28;20224;-46
2022/06/02 08:38:26;;;;;;;1999.90;999.90;;;;;;;29.71;42.60;95561.31;5008296;28;20197;-47
2022/06/02 08:41:30;;;;;;;1999.90;999.90;;;;;;;29.22;47.01;95562.41;5057878;28;20185;-62
2022/06/02 08:44:17;;;;;;;1999.90;999.90;;;;;;;28.82;47.11;95561.06;5058341;28;20185;-64
2022/06/02 08:46:58;;;;;;;1999.90;999.90;;;;;;;29.48;45.69;95563.50;5058047;28;20240;-62
2022/06/02 08:49:26;;;;;;;1999.90;999.90;;;;;;;28.36;46.63;95560.22;5057943;28;20220;-62
2022/06/02 08:52:31;;;;;;;1999.90;999.90;;;;;;;26.84;53.06;95559.13;5058049;28;20220;-64
2022/06/02 08:54:56;;;;;;;1999.90;999.90;;;;;;;26.27;55.58;95561.44;5056421;28;20185;-63
2022/06/02 08:57:31;;;;;;;1999.90;999.90;;;;;;;26.50;55.42;95560.25;5058424;28;20196;-62
2022/06/02 09:00:19;;;;;;;1999.90;999.90;;;;;;;25.64;59.19;95560.00;5058149;28;20184;-54
2022/06/02 09:03:26;;;;;;;1999.90;999.90;;;;;;;28.01;56.32;95553.13;5057622;28;20185;-50
2022/06/02 09:06:09;;;;;;;1999.90;999.90;;;;;;;28.69;50.64;95569.28;5030270;28;20204;-50
2022/06/02 09:09:01;;;;;;;1999.90;999.90;;;;;;;27.47;53.64;95560.31;5057281;28;20308;-51
2022/06/02 09:11:46;;;;;;;1999.90;999.90;;;;;;;27.96;52.00;95550.31;5057484;28;20196;-54
2022/06/02 09:14:49;;;;;;;1999.90;999.90;;;;;;;28.72;47.43;95568.25;5057245;28;20188;-60
2022/06/02 09:17:43;;;;;;;1999.90;999.90;;;;;;;29.93;46.36;95561.84;5057309;28;20269;-58
2022/06/02 09:20:09;;;;;;;1999.90;999.90;;;;;;;30.33;47.19;95557.38;5058057;28;20193;-57
2022/06/02 09:22:54;;;;;;;1999.90;999.90;;;;;;;30.31;45.92;95571.25;5057377;28;20219;-57
2022/06/02 09:25:41;;;;;;;1999.90;999.90;;;;;;;28.21;50.04;95571.72;5057516;28;20185;-57
2022/06/02 09:28:33;;;;;;;1999.90;999.90;;;;;;;26.31;59.13;95570.38;5057272;28;20185;-56
2022/06/02 09:31:23;;;;;;;1999.90;999.90;;;;;;;27.36;55.90;95574.31;5057734;28;20197;-56
2022/06/02 09:34:28;;;;;;;1999.90;999.90;;;;;;;26.29;57.66;95572.88;5057049;28;20224;-57
2022/06/02 09:37:01;;;;;;;1999.90;999.90;;;;;;;25.16;65.62;95573.00;5039369;28;20197;-45
2022/06/02 09:39:52;;;;;;;1999.90;999.90;;;;;;;26.10;64.07;95568.19;5057464;28;20192;-50
2022/06/02 09:42:55;;;;;;;1999.90;999.90;;;;;;;26.06;64.27;95578.88;5057168;28;20223;-46
2022/06/02 09:45:59;;;;;;;1999.90;999.90;;;;;;;25.50;69.41;95566.50;5057365;28;20282;-46
2022/06/02 09:48:36;;;;;;;1999.90;999.90;;;;;;;24.22;73.50;95577.47;5019414;28;20246;-45
2022/06/02 09:51:38;;;;;;;1999.90;999.90;;;;;;;23.63;81.61;95555.81;5057470;28;20189;-56
2022/06/02 09:54:23;;;;;;;1999.90;999.90;;;;;;;24.40;75.59;95571.63;5056709;28;20222;-57
2022/06/02 09:57:55;;;;;;;1999.90;999.90;;;;;;;25.12;73.44;95569.66;5056966;28;20177;-56
2022/06/02 10:00:11;;;;;;;1999.90;999.90;;;;;;;25.39;68.41;95572.00;5074166;28;20238;-55
2022/06/02 10:03:03;;;;;;;1999.90;999.90;;;;;;;27.08;62.70;95565.06;5056440;28;20189;-56
2022/06/02 10:05:49;;;;;;;1999.90;999.90;;;;;;;28.05;59.48;95566.91;5045017;28;20189;-57
2022/06/02 10:08:33;;;;;;;1999.90;999.90;;;;;;;28.15;58.59;95568.16;5056578;28;20188;-57
2022/06/02 10:11:29;;;;;;;1999.90;999.90;;;;;;;28.23;56.21;95569.94;5056110;28;20177;-53
2022/06/02 10:14:03;;;;;;;1999.90;999.90;;;;;;;28.62;53.70;95571.91;5056707;28;20220;-44
2022/06/02 10:16:50;;;;;;;1999.90;999.90;;;;;;;27.50;57.82;95558.50;5056555;28;20219;-50
2022/06/02 10:19:40;;;;;;;1999.90;999.90;;;;;;;28.69;55.60;95571.34;5056863;28;20284;-46
2022/06/02 10:22:20;;;;;;;1999.90;999.90;;;;;;;28.08;54.25;95563.84;5056100;28;20189;-48
2022/06/02 10:25:36;;;;;;;1999.90;999.90;;;;;;;27.02;60.46;95558.66;5056541;28;20189;-49
2022/06/02 10:28:32;;;;;;;1999.90;999.90;;;;;;;27.09;57.04;95569.38;5014641;28;20197;-61
2022/06/02 10:31:31;;;;;;;1999.90;999.90;;;;;;;28.01;59.86;95555.19;5056534;28;20192;-50
2022/06/02 10:34:12;;;;;;;1999.90;999.90;;;;;;;27.55;59.94;95561.31;5056115;28;20212;-50
2022/06/02 10:37:01;;;;;;;1999.90;999.90;;;;;;;24.96;70.31;95568.25;5056744;28;20189;-49
2022/06/02 10:39:39;;;;;;;1999.90;999.90;;;;;;;24.95;73.38;95554.78;5056313;28;20285;-53
2022/06/02 10:42:04;;;;;;;1999.90;999.90;;;;;;;24.62;75.15;95557.22;5073775;28;20188;-51
2022/06/02 10:44:57;;;;;;;1999.90;999.90;;;;;;;25.80;69.57;95561.34;5055879;28;20189;-49
2022/06/02 10:47:46;;;;;;;1999.90;999.90;;;;;;;26.50;66.08;95563.06;5056289;28;20211;-56
2022/06/02 10:50:34;;;;;;;1999.90;999.90;;;;;;;25.26;69.45;95563.19;5056159;28;20267;-53
2022/06/02 10:53:21;;;;;;;1999.90;999.90;;;;;;;25.25;71.55;95568.00;5055778;28;20196;-52
2022/06/02 10:56:08;;;;;;;1999.90;999.90;;;;;;;24.86;70.63;95568.88;5055695;28;20201;-54
2022/06/02 10:59:12;;;;;;;1999.90;999.90;;;;;;;24.35;74.93;95568.75;5056536;28;20189;-53
2022/06/02 11:02:08;;;;;;;1999.90;999.90;;;;;;;24.22;73.61;95569.09;4956846;28;20196;-53
2022/06/02 11:05:07;;;;;;;1999.90;999.90;;;;;;;25.40;71.10;95567.94;4957231;28;20294;-44
2022/06/02 11:08:17;;;;;;;1999.90;999.90;;;;;;;26.07;65.84;95563.63;5045957;28;20197;-51
2022/06/02 11:11:22;;;;;;;1999.90;999.90;;;;;;;26.42;65.34;95556.41;4956807;28;20192;-47
2022/06/02 11:13:55;;;;;;;1999.90;999.90;;;;;;;26.07;61.16;95572.75;4956895;28;20373;-50
2022/06/02 11:16:58;;;;;;;1999.90;999.90;;;;;;;26.41;59.61;95554.09;5034090;28;20235;-48
2022/06/02 11:19:42;;;;;;;1999.90;999.90;;;;;;;26.16;64.06;95560.59;5076883;28;20192;-48
2022/06/02 11:22:42;;;;;;;1999.90;999.90;;;;;;;27.64;58.84;95558.25;5058901;28;20267;-48
2022/06/02 11:25:38;;;;;;;1999.90;999.90;;;;;;;27.26;59.25;95547.78;5058696;28;20181;-64
2022/06/02 11:28:16;;;;;;;1999.90;999.90;;;;;;;27.35;59.43;95547.53;5059461;28;20213;-54
2022/06/02 11:31:05;;;;;;;1999.90;999.90;;;;;;;27.24;58.45;95541.91;5059279;28;20200;-53
2022/06/02 11:33:45;;;;;;;1999.90;999.90;;;;;;;28.32;56.13;95542.84;5059071;28;20243;-51
2022/06/02 11:36:43;;;;;;;1999.90;999.90;;;;;;;27.46;56.35;95541.16;5059000;28;20193;-54
2022/06/02 11:39:27;;;;;;;1999.90;999.90;;;;;;;27.20;58.20;95535.75;5059280;28;20204;-52
2022/06/02 11:42:00;;;;;;;1999.90;999.90;;;;;;;26.50;62.25;95523.84;5059235;28;20193;-48
2022/06/02 11:44:47;;;;;;;1999.90;999.90;;;;;;;26.07;63.11;95525.16;5059248;28;20212;-57
2022/06/02 11:47:16;;;;;;;1999.90;999.90;;;;;;;26.08;63.16;95531.53;5058619;28;20189;-58
2022/06/02 11:49:58;;;;;;;1999.90;999.90;;;;;;;24.20;69.54;95535.34;5058838;28;20209;-58
2022/06/02 11:52:38;;;;;;;1999.90;999.90;;;;;;;25.11;67.19;95535.38;5059243;28;20235;-57
2022/06/02 11:55:25;;;;;;;1999.90;999.90;;;;;;;24.49;69.85;95534.41;5058451;28;20189;-58
2022/06/02 11:58:13;;;;;;;1999.90;999.90;;;;;;;25.31;66.19;95521.31;5058455;28;20192;-57
2022/06/02 12:01:13;;;;;;;1999.90;999.90;;;;;;;25.76;64.31;95527.25;5058493;28;20185;-47
2022/06/02 12:04:06;;;;;;;1999.90;999.90;;;;;;;26.19;62.90;95514.78;5059181;28;20185;-58
2022/06/02 12:06:54;;;;;;;1999.90;999.90;;;;;;;26.17;60.91;95528.50;5058441;28;20276;-58
2022/06/02 12:09:44;;;;;;;1999.90;999.90;;;;;;;24.84;67.88;95532.31;5058818;28;20213;-57
2022/06/02 12:12:28;;;;;;;1999.90;999.90;;;;;;;24.35;73.21;95536.03;5058952;28;20181;-55
2022/06/02 12:15:06;;;;;;;1999.90;999.90;;;;;;;23.89;75.70;95526.00;5058346;28;20248;-55
2022/06/02 12:17:41;;;;;;;1999.90;999.90;;;;;;;24.14;74.83;95530.91;5058129;28;20208;-53